SCAG weather

Agua Santa Airport
Palmilla, O'Higgins Region, Chile

Public forecast

Using degrees Celsius for public forecast. Weather courtesy of forecast.io.

Closest aviation weather report (METAR) to Agua Santa Airport

Report is more than 6 hours old.

Closest report is Las Aguilas Airport, 24.9 nm (46.1 km) NNW. Retrieved 2012/08/11 10:00 UTC (7 years ago):

SCGL 111000Z 17003KT 110V200 1500 0700N R17L/P2000U R17R/0900V1300U BCFG OVC004 06/05 Q1017 TEMPO 1500 BR

Closest aviation forecast (TAF) to Agua Santa Airport

Closest forecast is Comodoro Arturo Merino Benítez International Airport, 74.8 nm (138.4 km) NNE. Retrieved 2020/01/29 18:00 UTC (2 hours ago):

TAF SCEL 291600Z 2918/3018 19008KT CAVOK TX29/2919Z TN16/3011Z TEMPO 2918/2922 8000 FEW050 BECMG 2919/2921 21018KT BECMG 3002/3004 15008KT BECMG 3004/3006 15004KT BECMG 3016/3018 19012KT